createdAt,value
2018-09-02T00:02:32.528Z,99633.86
2018-09-02T00:05:37.510Z,99634.09
2018-09-02T00:08:42.422Z,99632.03
2018-09-02T00:11:47.354Z,99639.73
2018-09-02T00:14:52.325Z,99632.61
2018-09-02T00:17:57.248Z,99631.66
2018-09-02T00:21:02.307Z,99634.28
2018-09-02T00:24:07.246Z,99636.46
2018-09-02T00:27:12.164Z,99636.02
2018-09-02T00:30:17.088Z,99633.42
2018-09-02T00:33:22.122Z,99638.28
2018-09-02T00:36:26.973Z,99636.20
2018-09-02T00:39:31.879Z,99639.78
2018-09-02T00:42:36.810Z,99633.36
2018-09-02T00:45:41.754Z,99636.94
2018-09-02T00:48:46.735Z,99636.44
2018-09-02T00:51:51.636Z,99638.22
2018-09-02T00:54:56.558Z,99637.21
2018-09-02T00:58:03.703Z,99624.08
2018-09-02T01:01:08.625Z,99629.52
2018-09-02T01:04:13.541Z,99622.56
2018-09-02T01:07:18.493Z,99622.53
2018-09-02T01:10:23.436Z,99615.34
2018-09-02T01:13:28.378Z,99617.88
2018-09-02T01:16:33.285Z,99613.64
2018-09-02T01:19:38.238Z,99610.66
2018-09-02T01:22:43.181Z,99609.08
2018-09-02T01:25:48.108Z,99609.47
2018-09-02T01:28:53.087Z,99605.44
2018-09-02T01:31:58.031Z,99609.37
2018-09-02T01:35:02.972Z,99603.61
2018-09-02T01:38:07.946Z,99613.13
2018-09-02T01:41:12.852Z,99607.42
2018-09-02T01:44:17.792Z,99606.58
2018-09-02T01:47:22.735Z,99597.48
2018-09-02T01:50:27.674Z,99600.33
2018-09-02T01:53:32.605Z,99597.84
2018-09-02T01:56:37.529Z,99599.52
2018-09-02T01:59:42.457Z,99591.40
2018-09-02T02:02:48.037Z,99598.47
2018-09-02T02:05:53.000Z,99592.95
2018-09-02T02:08:57.962Z,99592.72
2018-09-02T02:12:02.945Z,99591.97
2018-09-02T02:15:08.093Z,99585.53
2018-09-02T02:18:13.029Z,99588.45
2018-09-02T02:21:17.952Z,99581.53
2018-09-02T02:24:22.898Z,99578.27
2018-09-02T02:27:28.029Z,99580.65
2018-09-02T02:30:32.948Z,99586.86
2018-09-02T02:33:37.881Z,99574.70
2018-09-02T02:36:42.861Z,99576.79
2018-09-02T02:39:47.793Z,99574.27
2018-09-02T02:42:52.721Z,99575.09
2018-09-02T02:45:57.666Z,99565.11
2018-09-02T02:49:06.165Z,99568.34
2018-09-02T02:52:11.121Z,99564.88
2018-09-02T02:55:16.053Z,99564.22
2018-09-02T02:58:21.057Z,99560.96
2018-09-02T03:01:25.993Z,99557.63
2018-09-02T03:04:30.957Z,99559.72
2018-09-02T03:07:35.891Z,99560.22
2018-09-02T03:10:40.904Z,99558.94
2018-09-02T03:13:45.786Z,99559.72
2018-09-02T03:16:50.737Z,99556.11
2018-09-02T03:19:55.715Z,99552.77
2018-09-02T03:23:00.641Z,99548.27
2018-09-02T03:26:05.618Z,99555.95
2018-09-02T03:29:10.532Z,99552.50
2018-09-02T03:32:15.483Z,99548.19
2018-09-02T03:35:20.427Z,99549.11
2018-09-02T03:38:25.404Z,99544.64
2018-09-02T03:41:30.395Z,99543.67
2018-09-02T03:44:35.353Z,99534.96
2018-09-02T03:47:40.285Z,99534.25
2018-09-02T03:50:45.222Z,99534.25
2018-09-02T03:53:50.181Z,99543.34
2018-09-02T03:56:55.353Z,99534.61
2018-09-02T04:00:00.276Z,99536.28
2018-09-02T04:03:05.305Z,99537.56
2018-09-02T04:06:10.229Z,99534.25
2018-09-02T04:09:15.149Z,99534.73
2018-09-02T04:12:20.100Z,99527.54
2018-09-02T04:15:25.024Z,99536.81
2018-09-02T04:18:29.974Z,99529.98
2018-09-02T04:21:34.910Z,99524.86
2018-09-02T04:24:39.830Z,99528.52
2018-09-02T04:27:44.761Z,99526.47
2018-09-02T04:30:49.791Z,99533.68
2018-09-02T04:33:54.962Z,99530.34
2018-09-02T04:36:59.881Z,99529.06
2018-09-02T04:40:05.025Z,99525.72
2018-09-02T04:43:09.975Z,99523.63
2018-09-02T04:46:14.901Z,99521.30
2018-09-02T04:49:19.827Z,99528.19
2018-09-02T04:52:24.737Z,99526.16
2018-09-02T04:55:29.648Z,99524.11
2018-09-02T04:58:34.550Z,99523.06
2018-09-02T05:01:39.478Z,99524.11
2018-09-02T05:04:44.432Z,99519.13
2018-09-02T05:07:49.349Z,99519.37
2018-09-02T05:10:54.249Z,99515.61
2018-09-02T05:13:59.203Z,99510.39
2018-09-02T05:17:04.179Z,99510.81
2018-09-02T05:20:09.157Z,99516.18
2018-09-02T05:23:14.101Z,99516.75
2018-09-02T05:26:19.033Z,99522.14
2018-09-02T05:29:23.945Z,99519.61
2018-09-02T05:32:28.945Z,99515.05
2018-09-02T05:35:33.852Z,99513.89
2018-09-02T05:38:38.761Z,99514.27
2018-09-02T05:41:43.682Z,99515.97
2018-09-02T05:44:48.576Z,99516.66
2018-09-02T05:47:53.488Z,99518.77
2018-09-02T05:50:58.414Z,99514.02
2018-09-02T05:54:03.385Z,99515.67
2018-09-02T05:57:08.353Z,99515.72
2018-09-02T06:00:13.293Z,99509.62
2018-09-02T06:03:18.231Z,99511.52
2018-09-02T06:06:23.221Z,99506.89
2018-09-02T06:09:28.125Z,99510.14
2018-09-02T06:12:33.193Z,99501.73
2018-09-02T06:15:38.108Z,99502.52
2018-09-02T06:18:43.021Z,99503.05
2018-09-02T06:21:47.965Z,99499.21
2018-09-02T06:24:52.883Z,99497.66
2018-09-02T06:27:57.824Z,99502.54
2018-09-02T06:31:02.736Z,99503.55
2018-09-02T06:34:07.649Z,99500.97
2018-09-02T06:37:12.561Z,99491.16
2018-09-02T06:40:17.466Z,99487.83
2018-09-02T06:43:22.381Z,99487.27
2018-09-02T06:46:27.353Z,99482.04
2018-09-02T06:49:32.289Z,99490.43
2018-09-02T06:52:37.214Z,99492.45
2018-09-02T06:55:42.504Z,99489.53
2018-09-02T06:58:47.492Z,99490.91
2018-09-02T07:01:52.375Z,99486.47
2018-09-02T07:04:57.277Z,99487.14
2018-09-02T07:08:02.215Z,99488.02
2018-09-02T07:11:07.130Z,99483.22
2018-09-02T07:14:12.059Z,99488.72
2018-09-02T07:17:17.009Z,99483.78
2018-09-02T07:20:21.978Z,99492.02
2018-09-02T07:23:26.922Z,99489.55
2018-09-02T07:26:31.852Z,99487.58
2018-09-02T07:29:36.785Z,99489.30
2018-09-02T07:32:42.105Z,99486.40
2018-09-02T07:35:47.271Z,99490.47
2018-09-02T07:38:52.241Z,99492.44
2018-09-02T07:41:57.200Z,99500.62
2018-09-02T07:45:02.205Z,99491.91
2018-09-02T07:48:07.146Z,99494.23
2018-09-02T07:51:12.099Z,99493.34
2018-09-02T07:54:17.038Z,99491.43
2018-09-02T07:57:21.993Z,99492.02
2018-09-02T08:00:26.953Z,99492.43
2018-09-02T08:03:31.890Z,99488.20
2018-09-02T08:06:36.800Z,99489.55
2018-09-02T08:09:41.760Z,99490.48
2018-09-02T08:12:46.840Z,99491.09
2018-09-02T08:15:51.820Z,99490.13
2018-09-02T08:18:56.757Z,99491.38
2018-09-02T08:22:01.687Z,99484.02
2018-09-02T08:25:06.638Z,99488.44
2018-09-02T08:28:11.594Z,99484.91
2018-09-02T08:31:17.467Z,99486.52
2018-09-02T08:34:22.386Z,99477.38
2018-09-02T08:37:27.297Z,99481.88
2018-09-02T08:40:32.236Z,99480.52
2018-09-02T08:43:37.151Z,99476.92
2018-09-02T08:46:42.069Z,99481.97
2018-09-02T08:49:46.986Z,99475.49
2018-09-02T08:52:52.049Z,99478.99
2018-09-02T08:55:56.977Z,99472.75
2018-09-02T08:59:01.881Z,99470.81
2018-09-02T09:02:06.813Z,99471.53
2018-09-02T09:05:11.725Z,99468.05
2018-09-02T09:08:16.885Z,99469.95
2018-09-02T09:11:21.656Z,99466.75
2018-09-02T09:14:26.594Z,99462.25
2018-09-02T09:17:31.529Z,99459.48
2018-09-02T09:20:36.450Z,99462.15
2018-09-02T09:23:41.421Z,99455.73
2018-09-02T09:26:46.338Z,99453.81
2018-09-02T09:29:51.281Z,99446.03
2018-09-02T09:32:56.198Z,99444.84
2018-09-02T09:36:01.105Z,99440.44
2018-09-02T09:39:07.528Z,99439.81
2018-09-02T09:42:12.422Z,99436.29
2018-09-02T09:45:17.481Z,99423.66
2018-09-02T09:48:22.408Z,99424.41
2018-09-02T09:51:27.322Z,99424.51
2018-09-02T09:54:32.249Z,99420.89
2018-09-02T09:57:37.207Z,99414.62
2018-09-02T10:00:48.817Z,99416.89
2018-09-02T10:03:53.736Z,99420.72
2018-09-02T10:06:58.725Z,99421.48
2018-09-02T10:10:03.731Z,99423.16
2018-09-02T10:13:08.672Z,99419.33
2018-09-02T10:16:13.611Z,99423.34
2018-09-02T10:19:18.525Z,99411.92
2018-09-02T10:22:23.478Z,99414.17
2018-09-02T10:25:28.408Z,99411.62
2018-09-02T10:28:33.445Z,99412.92
2018-09-02T10:31:38.377Z,99402.31
2018-09-02T10:34:43.305Z,99404.62
2018-09-02T10:37:48.556Z,99395.94
2018-09-02T10:40:53.583Z,99397.02
2018-09-02T10:43:58.452Z,99401.16
2018-09-02T10:47:03.496Z,99404.44
2018-09-02T10:50:08.901Z,99405.29
2018-09-02T10:53:13.844Z,99408.53
2018-09-02T10:56:18.777Z,99407.20
2018-09-02T10:59:23.737Z,99409.48
2018-09-02T11:02:28.673Z,99407.19
2018-09-02T11:05:33.589Z,99398.58
2018-09-02T11:08:38.546Z,99395.30
2018-09-02T11:11:43.444Z,99387.19
2018-09-02T11:14:48.365Z,99382.19
2018-09-02T11:17:53.356Z,99376.31
2018-09-02T11:20:58.328Z,99377.02
2018-09-02T11:24:03.508Z,99377.34
2018-09-02T11:27:08.742Z,99375.45
2018-09-02T11:30:13.665Z,99371.94
2018-09-02T11:33:18.619Z,99366.88
2018-09-02T11:36:23.558Z,99365.81
2018-09-02T11:39:28.505Z,99368.74
2018-09-02T11:42:33.422Z,99369.30
2018-09-02T11:45:38.445Z,99372.08
2018-09-02T11:48:43.369Z,99374.92
2018-09-02T11:51:48.298Z,99371.95
2018-09-02T11:54:53.221Z,99371.13
2018-09-02T11:57:58.173Z,99368.99
2018-09-02T12:01:03.189Z,99360.40
2018-09-02T12:04:08.181Z,99361.26
2018-09-02T12:07:13.066Z,99359.25
2018-09-02T12:10:18.133Z,99353.03
2018-09-02T12:13:23.050Z,99356.94
2018-09-02T12:16:27.996Z,99351.08
2018-09-02T12:19:32.952Z,99355.45
2018-09-02T12:22:37.885Z,99348.52
2018-09-02T12:25:42.806Z,99351.41
2018-09-02T12:28:47.729Z,99353.22
2018-09-02T12:31:52.660Z,99341.59
2018-09-02T12:34:57.582Z,99339.27
2018-09-02T12:38:02.504Z,99331.45
2018-09-02T12:41:07.425Z,99329.52
2018-09-02T12:44:12.335Z,99326.04
2018-09-02T12:47:17.333Z,99326.00
2018-09-02T12:50:22.275Z,99320.20
2018-09-02T12:53:27.170Z,99320.13
2018-09-02T12:56:32.117Z,99316.38
2018-09-02T12:59:37.018Z,99306.28
2018-09-02T13:02:41.941Z,99296.52
2018-09-02T13:05:46.852Z,99292.33
2018-09-02T13:08:51.769Z,99303.96
2018-09-02T13:11:56.696Z,99307.39
2018-09-02T13:15:01.702Z,99296.98
2018-09-02T13:18:06.699Z,99296.29
2018-09-02T13:21:11.628Z,99285.80
2018-09-02T13:24:16.574Z,99298.67
2018-09-02T13:27:21.576Z,99289.14
2018-09-02T13:30:26.497Z,99285.75
2018-09-02T13:33:31.413Z,99291.09
2018-09-02T13:36:36.400Z,99293.16
2018-09-02T13:39:41.550Z,99299.81
2018-09-02T13:42:46.492Z,99296.40
2018-09-02T13:45:51.417Z,99298.30
2018-09-02T13:48:56.325Z,99297.70
2018-09-02T13:52:01.318Z,99291.52
2018-09-02T13:55:06.286Z,99283.75
2018-09-02T13:58:11.207Z,99288.75
2018-09-02T14:01:16.323Z,99279.97
2018-09-02T14:04:21.218Z,99287.87
2018-09-02T14:07:26.160Z,99284.63
2018-09-02T14:10:31.097Z,99281.92
2018-09-02T14:13:36.013Z,99280.02
2018-09-02T14:16:40.953Z,99277.81
2018-09-02T14:19:45.974Z,99275.15
2018-09-02T14:22:50.842Z,99269.65
2018-09-02T14:25:55.773Z,99270.36
2018-09-02T14:29:00.685Z,99270.66
2018-09-02T14:32:05.662Z,99261.31
2018-09-02T14:35:10.589Z,99261.16
2018-09-02T14:38:15.539Z,99261.80
2018-09-02T14:41:20.665Z,99259.45
2018-09-02T14:44:25.589Z,99264.39
2018-09-02T14:47:30.557Z,99261.61
2018-09-02T14:50:35.497Z,99255.29
2018-09-02T14:53:40.706Z,99247.19
2018-09-02T14:56:45.743Z,99250.69
2018-09-02T14:59:50.753Z,99256.23
2018-09-02T15:02:55.692Z,99256.44
2018-09-02T15:06:01.220Z,99256.20
2018-09-02T15:09:07.280Z,99253.42
2018-09-02T15:12:12.213Z,99255.61
2018-09-02T15:15:17.421Z,99264.82
2018-09-02T15:18:22.384Z,99261.80
2018-09-02T15:21:27.407Z,99270.06
2018-09-02T15:24:32.412Z,99263.75
2018-09-02T15:27:37.681Z,99260.19
2018-09-02T15:30:42.889Z,99255.74
2018-09-02T15:33:48.532Z,99253.09
2018-09-02T15:36:53.543Z,99251.38
2018-09-02T15:39:58.492Z,99256.62
2018-09-02T15:43:03.598Z,99247.16
2018-09-02T15:46:08.743Z,99250.63
2018-09-02T15:49:14.040Z,99246.06
2018-09-02T15:52:19.376Z,99242.45
2018-09-02T15:55:24.688Z,99238.34
2018-09-02T15:58:29.685Z,99234.42
2018-09-02T16:01:34.684Z,99233.05
2018-09-02T16:04:39.874Z,99237.83
2018-09-02T16:07:45.183Z,99231.31
2018-09-02T16:10:50.594Z,99235.17
2018-09-02T16:13:55.984Z,99231.06
2018-09-02T16:17:01.435Z,99231.16
2018-09-02T16:20:07.041Z,99226.97
2018-09-02T16:23:12.015Z,99230.00
2018-09-02T16:26:17.094Z,99229.63
2018-09-02T16:29:22.180Z,99230.00
2018-09-02T16:32:28.722Z,99226.20
2018-09-02T16:35:33.696Z,99219.98
2018-09-02T16:38:38.786Z,99223.77
2018-09-02T16:41:44.314Z,99217.56
2018-09-02T16:44:49.851Z,99223.20
2018-09-02T16:47:55.233Z,99220.00
2018-09-02T16:51:00.265Z,99219.29
2018-09-02T16:54:05.294Z,99214.95
2018-09-02T16:57:10.299Z,99213.47
2018-09-02T17:00:15.321Z,99210.50
2018-09-02T17:03:22.838Z,99207.15
2018-09-02T17:06:27.785Z,99204.11
2018-09-02T17:09:32.812Z,99205.13
2018-09-02T17:12:37.910Z,99207.38
2018-09-02T17:15:42.769Z,99204.86
2018-09-02T17:18:50.442Z,99202.00
2018-09-02T17:21:55.463Z,99203.14
2018-09-02T17:25:00.470Z,99209.42
2018-09-02T17:28:05.565Z,99201.61
2018-09-02T17:31:10.532Z,99200.17
2018-09-02T17:34:15.530Z,99202.41
2018-09-02T17:37:20.520Z,99203.47
2018-09-02T17:40:25.527Z,99208.58
2018-09-02T17:43:30.497Z,99201.66
2018-09-02T17:46:35.569Z,99197.48
2018-09-02T17:49:40.541Z,99198.97
2018-09-02T17:52:45.508Z,99201.19
2018-09-02T17:55:50.546Z,99207.38
2018-09-02T17:58:55.462Z,99204.86
2018-09-02T18:02:00.463Z,99203.80
2018-09-02T18:05:05.477Z,99207.05
2018-09-02T18:08:10.487Z,99202.08
2018-09-02T18:11:15.449Z,99206.30
2018-09-02T18:14:20.378Z,99212.16
2018-09-02T18:17:25.330Z,99212.98
2018-09-02T18:20:30.282Z,99214.78
2018-09-02T18:23:35.229Z,99213.66
2018-09-02T18:26:40.205Z,99213.03
2018-09-02T18:29:49.746Z,99214.97
2018-09-02T18:32:54.875Z,99213.52
2018-09-02T18:35:59.826Z,99213.77
2018-09-02T18:39:07.841Z,99204.41
2018-09-02T18:42:12.757Z,99211.72
2018-09-02T18:45:17.803Z,99213.99
2018-09-02T18:48:22.706Z,99213.52
2018-09-02T18:51:27.644Z,99211.39
2018-09-02T18:54:32.719Z,99213.99
2018-09-02T18:57:37.658Z,99210.81
2018-09-02T19:00:43.074Z,99209.45
2018-09-02T19:03:48.051Z,99210.08
2018-09-02T19:06:53.045Z,99209.91
2018-09-02T19:09:57.974Z,99201.48
2018-09-02T19:13:02.989Z,99207.72
2018-09-02T19:16:08.111Z,99207.48
2018-09-02T19:19:13.884Z,99208.29
2018-09-02T19:22:19.245Z,99211.69
2018-09-02T19:25:24.549Z,99217.45
2018-09-02T19:28:29.625Z,99215.08
2018-09-02T19:31:34.634Z,99215.82
2018-09-02T19:34:39.558Z,99206.66
2018-09-02T19:37:44.540Z,99202.44
2018-09-02T19:40:49.643Z,99204.62
2018-09-02T19:43:54.609Z,99193.98
2018-09-02T19:46:59.661Z,99198.06
2018-09-02T19:50:05.268Z,99195.14
2018-09-02T19:53:10.777Z,99183.03
2018-09-02T19:56:15.703Z,99186.37
2018-09-02T19:59:21.135Z,99188.28
2018-09-02T20:02:26.582Z,99188.97
2018-09-02T20:05:31.893Z,99190.09
2018-09-02T20:08:36.833Z,99183.09
2018-09-02T20:11:42.124Z,99178.72
2018-09-02T20:14:47.540Z,99179.88
2018-09-02T20:17:52.722Z,99181.97
2018-09-02T20:20:57.730Z,99170.59
2018-09-02T20:24:02.988Z,99171.42
2018-09-02T20:27:07.977Z,99176.64
2018-09-02T20:30:12.929Z,99167.78
2018-09-02T20:33:17.929Z,99169.90
2018-09-02T20:36:23.067Z,99172.89
2018-09-02T20:39:28.013Z,99179.38
2018-09-02T20:42:33.135Z,99171.92
2018-09-02T20:45:38.391Z,99171.59
2018-09-02T20:48:43.404Z,99168.82
2018-09-02T20:51:48.414Z,99164.39
2018-09-02T20:54:53.510Z,99164.95
2018-09-02T20:57:58.742Z,99170.14
2018-09-02T21:01:04.561Z,99162.98
2018-09-02T21:04:09.636Z,99168.05
2018-09-02T21:07:14.643Z,99165.45
2018-09-02T21:10:19.607Z,99162.67
2018-09-02T21:13:24.572Z,99163.17
2018-09-02T21:16:29.564Z,99166.56
2018-09-02T21:19:34.676Z,99160.48
2018-09-02T21:22:40.997Z,99156.34
2018-09-02T21:25:46.266Z,99149.60
2018-09-02T21:28:51.271Z,99145.13
2018-09-02T21:31:56.271Z,99143.91
2018-09-02T21:35:01.465Z,99146.41
2018-09-02T21:38:06.893Z,99149.02
2018-09-02T21:41:11.824Z,99150.48
2018-09-02T21:44:16.998Z,99147.47
2018-09-02T21:47:21.971Z,99148.58
2018-09-02T21:50:26.959Z,99141.45
2018-09-02T21:53:31.960Z,99137.50
2018-09-02T21:56:36.907Z,99145.59
2018-09-02T22:03:22.905Z,99144.48
2018-09-02T22:06:27.838Z,99148.05
2018-09-02T22:09:33.265Z,99146.74
2018-09-02T22:12:38.388Z,99139.29
2018-09-02T22:15:43.333Z,99137.82
2018-09-02T22:18:48.342Z,99133.85
2018-09-02T22:21:53.278Z,99139.29
2018-09-02T22:24:58.346Z,99142.04
2018-09-02T22:28:03.292Z,99139.86
2018-09-02T22:31:08.328Z,99143.81
2018-09-02T22:34:13.309Z,99131.02
2018-09-02T22:37:18.233Z,99129.03
2018-09-02T22:40:23.181Z,99132.61
2018-09-02T22:43:28.474Z,99124.03
2018-09-02T22:46:33.410Z,99121.58
2018-09-02T22:49:38.425Z,99118.65
2018-09-02T22:52:43.482Z,99113.30
2018-09-02T22:55:48.500Z,99119.97
2018-09-02T22:58:53.958Z,99120.93
2018-09-02T23:01:59.290Z,99117.54
2018-09-02T23:05:04.549Z,99117.45
2018-09-02T23:08:09.547Z,99104.62
2018-09-02T23:11:14.517Z,99101.05
2018-09-02T23:14:19.452Z,99098.37
2018-09-02T23:17:24.429Z,99094.64
2018-09-02T23:20:29.380Z,99095.63
2018-09-02T23:23:34.397Z,99094.32
2018-09-02T23:26:39.329Z,99088.23
2018-09-02T23:29:44.395Z,99081.36
2018-09-02T23:32:49.308Z,99073.16
2018-09-02T23:35:54.233Z,99069.83
2018-09-02T23:38:59.168Z,99067.08
2018-09-02T23:42:04.126Z,99054.31
2018-09-02T23:45:09.200Z,99042.75
2018-09-02T23:48:14.133Z,99042.41
2018-09-02T23:51:19.093Z,99026.75
2018-09-02T23:54:24.020Z,99015.98
2018-09-02T23:57:28.951Z,99006.73
